Time;durP1;ratioP1;P1;durP2;ratioP2;P2;SDS_P1;SDS_P2;PMS_P1;PMS_P2;Temp;Humidity;BMP_temperature;BMP_pressure;BME280_temperature;BME280_humidity;BME280_pressure;Samples;Min_cycle;Max_cycle;Signal;HPM_P1;HPM_P2
2022/11/14 21:44:49;;;;;;;69.57;30.17;;;;;;;2.91;87.39;98865.63;5064180;27;2203701;-70
2022/11/14 21:47:14;;;;;;;75.65;32.25;;;;;;;2.99;87.63;98867.16;5090772;28;20640;-71
2022/11/14 21:49:39;;;;;;;73.28;31.25;;;;;;;3.11;87.75;98861.72;5120721;28;20114;-71
2022/11/14 21:52:05;;;;;;;71.03;31.23;;;;;;;3.23;87.58;98857.09;5109724;28;20385;-74
2022/11/14 21:54:30;;;;;;;64.10;30.17;;;;;;;3.38;87.68;98859.31;5106415;28;20039;-72
2022/11/14 21:56:55;;;;;;;65.78;30.88;;;;;;;3.52;87.76;98872.63;5107713;28;20028;-71
2022/11/14 21:59:25;;;;;;;53.78;26.33;;;;;;;3.66;87.65;98865.03;5103724;28;20028;-71
2022/11/14 22:04:35;;;;;;;49.55;25.15;;;;;;;3.92;87.61;98869.06;5102731;28;20036;-71
2022/11/14 22:07:06;;;;;;;51.38;25.92;;;;;;;4.04;87.12;98871.72;5102098;28;20078;-71
2022/11/14 22:09:32;;;;;;;45.13;23.10;;;;;;;4.16;87.25;98869.78;5104243;28;20027;-72
2022/11/14 22:11:58;;;;;;;46.92;23.55;;;;;;;4.28;87.55;98866.19;5104280;28;20475;-73
2022/11/14 22:14:23;;;;;;;44.33;24.02;;;;;;;4.39;87.97;98865.28;5106745;28;20028;-72
2022/11/14 22:16:49;;;;;;;41.58;22.73;;;;;;;4.49;87.29;98871.94;5105166;28;20501;-71
2022/11/14 22:19:14;;;;;;;46.38;24.35;;;;;;;4.60;87.73;98884.66;5105025;28;20045;-71
2022/11/14 22:21:40;;;;;;;46.08;22.33;;;;;;;4.66;87.80;98878.22;5106006;28;20016;-71
2022/11/14 22:24:05;;;;;;;45.63;21.88;;;;;;;4.72;87.16;98873.69;5103965;28;20502;-71
2022/11/14 22:26:34;;;;;;;43.10;21.08;;;;;;;4.77;86.94;98871.88;5086428;28;20114;-71
2022/11/14 22:28:59;;;;;;;54.63;26.40;;;;;;;4.85;87.47;98875.25;5104190;28;20028;-71
2022/11/14 22:31:24;;;;;;;63.70;34.13;;;;;;;4.90;87.26;98869.88;5104486;28;20027;-71
2022/11/14 22:33:51;;;;;;;53.83;29.63;;;;;;;4.94;86.82;98881.06;5103639;28;20081;-71
2022/11/14 22:36:18;;;;;;;49.40;25.60;;;;;;;4.99;87.02;98873.00;5104763;28;20024;-71
2022/11/14 22:38:44;;;;;;;42.17;22.60;;;;;;;5.02;86.46;98873.34;5104532;28;20146;-71
2022/11/14 22:41:21;;;;;;;44.65;22.50;;;;;;;5.08;87.09;98882.38;5104275;28;20073;-71
2022/11/14 22:43:47;;;;;;;40.15;21.00;;;;;;;5.13;86.37;98874.31;5104451;28;20131;-71
2022/11/14 22:46:16;;;;;;;43.67;22.58;;;;;;;5.14;86.70;98869.69;5107128;28;20038;-71
2022/11/14 22:48:43;;;;;;;47.40;23.17;;;;;;;5.13;86.87;98874.31;5104954;28;20043;-72
2022/11/14 22:51:13;;;;;;;45.75;23.42;;;;;;;5.10;86.33;98868.53;5104491;28;20030;-70
2022/11/14 22:53:39;;;;;;;43.00;21.23;;;;;;;5.06;86.64;98877.22;5084419;28;20222;-71
2022/11/14 22:56:06;;;;;;;49.20;23.00;;;;;;;5.04;86.04;98871.19;5091193;28;20467;-71
2022/11/14 22:58:34;;;;;;;46.80;21.90;;;;;;;5.03;86.41;98880.44;5090400;28;20020;-71
2022/11/14 23:01:00;;;;;;;43.70;22.35;;;;;;;5.05;86.13;98874.72;5090757;28;20028;-71
2022/11/14 23:03:27;;;;;;;49.58;25.00;;;;;;;5.08;85.60;98868.78;5090770;28;20077;-71
2022/11/14 23:05:53;;;;;;;43.17;21.25;;;;;;;5.10;86.39;98869.38;5090844;28;20012;-71
2022/11/14 23:08:19;;;;;;;45.10;20.45;;;;;;;5.15;86.21;98871.31;5090172;28;20269;-70
2022/11/14 23:10:46;;;;;;;39.33;19.42;;;;;;;5.16;86.00;98860.22;5089778;28;20032;-71
2022/11/14 23:13:12;;;;;;;45.63;20.90;;;;;;;5.14;85.69;98865.06;5088568;28;20111;-71
2022/11/14 23:15:38;;;;;;;55.65;24.58;;;;;;;5.16;85.53;98867.53;5089730;28;20077;-72
2022/11/14 23:18:05;;;;;;;48.33;22.65;;;;;;;5.19;85.97;98861.59;5089854;28;20016;-71
2022/11/14 23:20:34;;;;;;;66.32;28.65;;;;;;;5.19;85.95;98850.72;5089908;28;20045;-71
2022/11/14 23:22:59;;;;;;;45.67;21.50;;;;;;;5.19;85.74;98867.03;5090194;28;20051;-71
2022/11/14 23:25:25;;;;;;;35.10;18.05;;;;;;;5.21;86.01;98851.28;5088643;28;20048;-71
2022/11/14 23:27:50;;;;;;;53.35;23.17;;;;;;;5.21;85.53;98849.41;5089996;28;20020;-71
2022/11/14 23:30:16;;;;;;;38.20;19.33;;;;;;;5.21;85.66;98854.00;5089895;28;20020;-71
2022/11/14 23:32:41;;;;;;;51.83;22.70;;;;;;;5.19;85.09;98848.00;5091190;28;20021;-71
2022/11/14 23:35:06;;;;;;;51.80;22.63;;;;;;;5.15;85.36;98846.84;5089741;28;20069;-71
2022/11/14 23:37:32;;;;;;;45.95;21.20;;;;;;;5.14;85.06;98848.75;5089566;28;20043;-71
2022/11/14 23:39:57;;;;;;;47.30;20.70;;;;;;;5.12;85.13;98845.47;5089857;28;20028;-72
2022/11/14 23:42:23;;;;;;;48.50;22.75;;;;;;;5.12;85.46;98841.91;5089846;28;20028;-72
2022/11/14 23:44:48;;;;;;;46.67;22.65;;;;;;;5.09;84.91;98837.00;5089404;28;20537;-72
2022/11/14 23:47:13;;;;;;;51.60;23.80;;;;;;;5.09;85.08;98839.72;5071762;28;20024;-71
2022/11/14 23:49:39;;;;;;;47.72;22.10;;;;;;;5.07;84.75;98839.97;5089803;28;20461;-72
2022/11/14 23:52:04;;;;;;;56.15;24.92;;;;;;;5.06;84.80;98839.16;5089857;28;20372;-71
2022/11/14 23:54:30;;;;;;;48.30;22.05;;;;;;;5.05;84.94;98828.50;5089772;28;20381;-71
2022/11/14 23:56:55;;;;;;;37.30;18.77;;;;;;;5.04;85.10;98826.84;5089835;28;20016;-71
2022/11/14 23:59:20;;;;;;;36.28;19.63;;;;;;;5.04;84.81;98826.84;5089246;28;20056;-71
